Terminal Aerodrome Forecast
Issued by NWS

Home | Current Version | Previous Version | Text Only | Print | Product List | Glossary On
Versions: 1 2 3 4 5 6 7 8 9 10 11 12 13 14 15 16 17 18 19 20 21 22 23 24 25 26 27 28 29 30 31 32 33 34 35
000
FTUS41 KOKX 271700 RRA
TAFGON
TAF
KGON 271748Z 2718/2818 32006KT P6SM SCT015 BKN035
     FM272000 33006KT P6SM -SHRA BKN015
     FM272200 34006KT P6SM BKN020
     FM280800 34007KT P6SM SCT050 SCT080
     FM281400 32012G18KT P6SM FEW040=

USA.gov is the U.S. government's official web portal to all federal, state and local government web resources and services.